Time;durP1;ratioP1;P1;durP2;ratioP2;P2;SDS_P1;SDS_P2;PMS_P1;PMS_P2;Temp;Humidity;BMP_temperature;BMP_pressure;BME280_temperature;BME280_humidity;BME280_pressure;Samples;Min_cycle;Max_cycle;Signal;HPM_P1;HPM_P2
2022/01/20 00:01:50;;;;;;;0.00;0.00;;;4.40;92.50;;;;;;4164086;28;20041;-61
2022/01/20 00:04:24;;;;;;;0.00;0.00;;;4.40;92.60;;;;;;4176879;28;20136;-61
2022/01/20 00:07:24;;;;;;;0.00;0.00;;;4.40;92.60;;;;;;4177253;28;20051;-59
2022/01/20 00:28:16;;;;;;;;;;;4.50;92.40;;;;;;4188066;28;20058;-59
2022/01/20 00:30:47;;;;;;;0.00;0.00;;;4.50;92.30;;;;;;4175112;28;19971;-58
2022/01/20 00:37:16;;;;;;;0.00;0.00;;;4.60;92.10;;;;;;4175985;28;20099;-62
2022/01/20 00:38:17;;;;;;;0.00;0.00;;;4.70;92.10;;;;;;4162463;28;20053;-62
2022/01/20 00:40:40;;;;;;;0.00;0.00;;;4.70;92.00;;;;;;4161675;28;20140;-60
2022/01/20 00:43:02;;;;;;;0.00;0.00;;;4.80;91.90;;;;;;4158381;28;20041;-59
2022/01/20 00:45:25;;;;;;;0.00;0.00;;;4.80;91.80;;;;;;4133091;28;20054;-61
2022/01/20 00:47:47;;;;;;;0.00;0.00;;;4.90;91.60;;;;;;4142271;28;20064;-61
2022/01/20 00:50:19;;;;;;;0.00;0.00;;;4.80;91.60;;;;;;4166352;28;20053;-61
2022/01/20 00:52:41;;;;;;;0.00;0.00;;;4.80;91.60;;;;;;4176350;28;20092;-61
2022/01/20 00:55:05;;;;;;;0.00;0.00;;;4.70;91.70;;;;;;4177370;28;20041;-61
2022/01/20 00:57:36;;;;;;;0.00;0.00;;;4.70;91.80;;;;;;4191511;28;20106;-61
2022/01/20 00:59:59;;;;;;;0.00;0.00;;;4.70;91.80;;;;;;4179348;28;20467;-60
2022/01/20 01:02:22;;;;;;;0.00;0.00;;;4.70;91.80;;;;;;4160941;28;20096;-59
2022/01/20 01:04:45;;;;;;;0.00;0.00;;;4.70;91.80;;;;;;4155588;28;20554;-60
2022/01/20 01:09:47;;;;;;;0.00;0.00;;;4.60;92.10;;;;;;4172666;28;20052;-61
2022/01/20 01:12:16;;;;;;;0.00;0.00;;;4.50;92.20;;;;;;4190738;28;20480;-58
2022/01/20 01:14:44;;;;;;;0.00;0.00;;;4.40;92.40;;;;;;4192904;28;20090;-60
2022/01/20 01:24:33;;;;;;;0.00;0.00;;;4.40;92.90;;;;;;4178645;28;20420;-57
2022/01/20 01:26:56;;;;;;;0.00;0.00;;;4.40;92.70;;;;;;4165211;28;20053;-60
2022/01/20 01:31:59;;;;;;;0.00;0.00;;;4.40;93.00;;;;;;4151136;28;20042;-60
2022/01/20 01:34:23;;;;;;;0.00;0.00;;;4.60;92.50;;;;;;4178513;28;20061;-60
2022/01/20 01:39:24;;;;;;;0.00;0.00;;;4.80;92.10;;;;;;4166894;28;20044;-59
2022/01/20 01:41:47;;;;;;;0.00;0.00;;;5.00;91.90;;;;;;4164657;28;20060;-59
2022/01/20 01:44:12;;;;;;;0.00;0.00;;;5.10;91.50;;;;;;4178804;28;20076;-58
2022/01/20 01:46:37;;;;;;;0.00;0.00;;;5.20;91.20;;;;;;4164545;28;20121;-58
2022/01/20 01:49:00;;;;;;;0.00;0.00;;;5.30;90.90;;;;;;4164858;28;20144;-59
2022/01/20 01:51:22;;;;;;;0.00;0.00;;;5.40;90.70;;;;;;4178341;28;20044;-61
2022/01/20 01:53:45;;;;;;;0.00;0.00;;;5.40;90.40;;;;;;4192547;28;20123;-59
2022/01/20 01:56:08;;;;;;;0.00;0.00;;;5.40;90.00;;;;;;4164812;28;20068;-60
2022/01/20 01:58:33;;;;;;;0.00;0.00;;;5.50;89.90;;;;;;4164389;28;20051;-61
2022/01/20 02:01:03;;;;;;;;;;;5.50;89.40;;;;;;4190129;28;20044;-61
2022/01/20 02:03:30;;;;;;;0.00;0.00;;;5.50;89.20;;;;;;4148269;28;19925;-60
2022/01/20 02:08:49;;;;;;;0.00;0.00;;;5.60;88.90;;;;;;4135247;28;20049;-60
2022/01/20 02:19:21;;;;;;;0.00;0.00;;;5.50;85.30;;;;;;4175674;28;20402;-60
2022/01/20 02:21:55;;;;;;;0.00;0.00;;;5.50;85.10;;;;;;4161521;28;20057;-61
2022/01/20 02:24:22;;;;;;;0.00;0.00;;;5.50;84.40;;;;;;4175502;28;20053;-58
2022/01/20 02:26:45;;;;;;;0.00;0.00;;;5.50;84.30;;;;;;4171190;28;20408;-59
2022/01/20 02:29:15;;;;;;;0.00;0.00;;;5.50;84.30;;;;;;4145501;28;20045;-60
2022/01/20 02:31:39;;;;;;;0.00;0.00;;;5.40;83.80;;;;;;4142378;28;20057;-61
2022/01/20 02:34:02;;;;;;;0.00;0.00;;;5.50;83.80;;;;;;4132862;28;20106;-61
2022/01/20 02:36:27;;;;;;;0.00;0.00;;;5.50;83.70;;;;;;4147546;28;20045;-60
2022/01/20 02:39:00;;;;;;;0.00;0.00;;;5.50;83.20;;;;;;4148002;28;20132;-60
2022/01/20 02:46:45;;;;;;;;;;;5.60;82.20;;;;;;4136311;28;20407;-60
2022/01/20 02:49:14;;;;;;;0.00;0.00;;;5.60;81.90;;;;;;4147856;28;19926;-59
2022/01/20 02:51:36;;;;;;;0.00;0.00;;;5.50;81.50;;;;;;4147496;28;20152;-60
2022/01/20 02:53:59;;;;;;;0.00;0.00;;;5.60;81.80;;;;;;4161440;28;20077;-60
2022/01/20 02:56:21;;;;;;;0.00;0.00;;;5.70;81.60;;;;;;4147195;28;20104;-61
2022/01/20 02:58:43;;;;;;;0.00;0.00;;;5.70;81.50;;;;;;4161646;28;20045;-59
2022/01/20 03:01:06;;;;;;;0.00;0.00;;;5.70;81.30;;;;;;4147281;28;20054;-59
2022/01/20 03:03:28;;;;;;;0.00;0.00;;;5.80;81.50;;;;;;4161283;28;20128;-59
2022/01/20 03:05:51;;;;;;;0.00;0.00;;;5.80;81.60;;;;;;4147502;28;20049;-58
2022/01/20 03:08:13;;;;;;;0.00;0.00;;;5.80;81.50;;;;;;4147165;28;20046;-61
2022/01/20 03:10:35;;;;;;;0.00;0.00;;;5.80;81.30;;;;;;4161106;28;20049;-61
2022/01/20 03:12:58;;;;;;;0.00;0.00;;;5.80;81.20;;;;;;4149881;28;20158;-61
2022/01/20 03:15:20;;;;;;;0.00;0.00;;;5.80;81.20;;;;;;4174542;28;20099;-59
2022/01/20 03:17:43;;;;;;;0.00;0.00;;;5.80;81.20;;;;;;4153288;28;20095;-58
2022/01/20 03:20:06;;;;;;;0.00;0.00;;;5.80;81.20;;;;;;4174416;28;20145;-61
2022/01/20 03:22:28;;;;;;;0.00;0.00;;;5.80;81.30;;;;;;4150853;28;20053;-59
2022/01/20 03:24:51;;;;;;;0.00;0.00;;;5.80;81.40;;;;;;4177782;28;20120;-60
2022/01/20 03:27:14;;;;;;;0.00;0.00;;;5.80;81.50;;;;;;4177754;28;20149;-60
2022/01/20 03:29:36;;;;;;;0.00;0.00;;;5.70;81.80;;;;;;4177602;28;20041;-61
2022/01/20 03:32:00;;;;;;;0.00;0.00;;;5.70;82.10;;;;;;4174326;28;20044;-59
2022/01/20 03:34:23;;;;;;;0.00;0.00;;;5.50;82.60;;;;;;4177243;28;20053;-60
2022/01/20 03:36:52;;;;;;;0.00;0.00;;;5.40;82.90;;;;;;4163171;28;20391;-59
2022/01/20 03:39:20;;;;;;;0.00;0.00;;;5.50;83.10;;;;;;4177632;28;20119;-60
2022/01/20 03:41:43;;;;;;;0.00;0.00;;;5.40;83.40;;;;;;4165848;28;20053;-59
2022/01/20 03:44:16;;;;;;;;;;;5.30;83.60;;;;;;4182587;28;20040;-61
2022/01/20 03:46:40;;;;;;;0.00;0.00;;;5.20;84.00;;;;;;4179958;28;19927;-61
2022/01/20 03:49:10;;;;;;;0.00;0.00;;;5.30;83.70;;;;;;4166262;28;20076;-61
2022/01/20 03:51:32;;;;;;;0.00;0.00;;;5.40;83.80;;;;;;4180377;28;20071;-61
2022/01/20 03:53:56;;;;;;;0.00;0.00;;;5.40;84.00;;;;;;4166594;28;20053;-61
2022/01/20 03:56:38;;;;;;;0.00;0.00;;;5.40;84.00;;;;;;4153612;28;20037;-61
2022/01/20 03:59:19;;;;;;;0.00;0.00;;;5.30;84.20;;;;;;4177873;28;20061;-59
2022/01/20 04:01:42;;;;;;;0.00;0.00;;;5.30;84.60;;;;;;4159672;28;20087;-60
2022/01/20 04:04:33;;;;;;;0.00;0.00;;;5.30;84.80;;;;;;4176830;28;20053;-60
2022/01/20 04:07:06;;;;;;;0.00;0.00;;;5.20;85.40;;;;;;4163878;28;20048;-59
2022/01/20 04:09:28;;;;;;;0.00;0.00;;;5.30;85.40;;;;;;4188336;28;20075;-59
2022/01/20 04:11:51;;;;;;;0.00;0.00;;;5.30;85.40;;;;;;4179873;28;20065;-59
2022/01/20 04:14:14;;;;;;;0.00;0.00;;;5.20;85.90;;;;;;4165520;28;20485;-61
2022/01/20 04:16:53;;;;;;;0.00;0.00;;;5.30;86.10;;;;;;4177548;28;20060;-59
2022/01/20 04:19:16;;;;;;;0.00;0.00;;;5.30;86.10;;;;;;4163630;28;20046;-59
2022/01/20 04:21:39;;;;;;;0.00;0.00;;;5.30;85.90;;;;;;4163393;28;20049;-61
2022/01/20 04:24:04;;;;;;;0.00;0.00;;;5.20;86.30;;;;;;4163517;28;20049;-60
2022/01/20 04:26:28;;;;;;;0.00;0.00;;;5.30;86.50;;;;;;4163295;28;20058;-61
2022/01/20 04:28:54;;;;;;;0.00;0.00;;;5.10;86.90;;;;;;4149859;28;20434;-59
2022/01/20 04:31:16;;;;;;;0.00;0.00;;;5.10;87.20;;;;;;4172231;28;20119;-60
2022/01/20 04:33:39;;;;;;;0.00;0.00;;;5.20;87.10;;;;;;4165776;28;20049;-60
2022/01/20 04:36:03;;;;;;;0.00;0.00;;;5.20;87.00;;;;;;4166086;28;20128;-60
2022/01/20 04:38:26;;;;;;;0.00;0.00;;;5.10;87.20;;;;;;4193406;28;20521;-60
2022/01/20 04:40:49;;;;;;;0.00;0.00;;;5.00;87.80;;;;;;4165691;28;20044;-59
2022/01/20 04:43:11;;;;;;;0.00;0.00;;;4.90;87.80;;;;;;4171466;28;20042;-60
2022/01/20 04:45:40;;;;;;;0.00;0.00;;;4.90;88.10;;;;;;4149619;28;20058;-59
2022/01/20 04:58:52;;;;;;;0.00;0.00;;;5.00;88.00;;;;;;4179767;28;20127;-64
2022/01/20 05:01:15;;;;;;;0.00;0.00;;;5.00;88.10;;;;;;4179321;28;20049;-60
2022/01/20 05:04:04;;;;;;;0.00;0.00;;;5.20;87.80;;;;;;4179564;28;20045;-60
2022/01/20 05:06:47;;;;;;;0.00;0.00;;;5.30;87.50;;;;;;4179169;28;20518;-60
2022/01/20 05:09:17;;;;;;;0.00;0.00;;;5.30;87.20;;;;;;4179432;28;20060;-59
2022/01/20 05:11:43;;;;;;;0.00;0.00;;;5.20;87.50;;;;;;4178974;28;20052;-60
2022/01/20 05:14:06;;;;;;;0.00;0.00;;;5.20;87.40;;;;;;4179225;28;20087;-58
2022/01/20 05:16:28;;;;;;;0.00;0.00;;;5.10;87.50;;;;;;4178936;28;20052;-60
2022/01/20 05:18:55;;;;;;;0.00;0.00;;;5.00;87.80;;;;;;4179201;28;20056;-59
2022/01/20 05:21:17;;;;;;;0.00;0.00;;;5.00;88.00;;;;;;4178942;28;20406;-59
2022/01/20 05:23:40;;;;;;;0.00;0.00;;;4.90;88.50;;;;;;4165327;28;20069;-59
2022/01/20 05:26:06;;;;;;;0.00;0.00;;;4.90;88.70;;;;;;4179015;28;20047;-59
2022/01/20 05:28:28;;;;;;;0.00;0.00;;;4.90;88.60;;;;;;4165282;28;20053;-61
2022/01/20 05:30:51;;;;;;;0.00;0.00;;;4.90;88.50;;;;;;4179073;28;20072;-59
2022/01/20 05:33:13;;;;;;;0.00;0.00;;;5.00;88.90;;;;;;4170637;28;20049;-60
2022/01/20 05:35:36;;;;;;;0.00;0.00;;;5.00;88.50;;;;;;4160625;28;20076;-60
2022/01/20 05:37:59;;;;;;;0.00;0.00;;;5.10;88.40;;;;;;4179315;28;20128;-61
2022/01/20 05:40:23;;;;;;;0.00;0.00;;;5.20;88.10;;;;;;4178680;28;20588;-61
2022/01/20 05:42:46;;;;;;;0.00;0.00;;;5.20;87.70;;;;;;4179397;28;20065;-61
2022/01/20 05:45:09;;;;;;;0.00;0.00;;;5.00;88.10;;;;;;4178991;28;20091;-60
2022/01/20 05:47:33;;;;;;;0.00;0.00;;;5.10;88.10;;;;;;4179218;28;20417;-59
2022/01/20 05:50:04;;;;;;;0.00;0.00;;;5.00;88.30;;;;;;4179026;28;20091;-60
2022/01/20 05:52:27;;;;;;;0.00;0.00;;;5.00;88.70;;;;;;4178440;28;20068;-61
2022/01/20 05:54:50;;;;;;;0.00;0.00;;;5.10;88.50;;;;;;4165149;28;20041;-59
2022/01/20 05:57:12;;;;;;;0.00;0.00;;;5.10;88.30;;;;;;4179143;28;20533;-60
2022/01/20 05:59:41;;;;;;;0.00;0.00;;;5.10;88.50;;;;;;4165166;28;20056;-61
2022/01/20 06:02:12;;;;;;;0.00;0.00;;;5.10;88.60;;;;;;4164685;28;20409;-61
2022/01/20 06:04:34;;;;;;;0.00;0.00;;;5.10;88.40;;;;;;4151649;28;20041;-61
2022/01/20 06:06:58;;;;;;;0.00;0.00;;;5.10;88.50;;;;;;4178768;28;20099;-61
2022/01/20 06:09:20;;;;;;;0.00;0.00;;;5.10;88.60;;;;;;4178550;28;20437;-60
2022/01/20 06:11:43;;;;;;;0.00;0.00;;;5.10;88.50;;;;;;4164670;28;20109;-60
2022/01/20 06:14:08;;;;;;;0.00;0.00;;;5.20;88.40;;;;;;4178722;28;20045;-61
2022/01/20 06:16:32;;;;;;;0.00;0.00;;;5.20;88.20;;;;;;4178407;28;20067;-60
2022/01/20 06:18:55;;;;;;;0.00;0.00;;;5.20;88.10;;;;;;4164556;28;20045;-61
2022/01/20 06:21:17;;;;;;;0.00;0.00;;;5.20;88.30;;;;;;4178328;28;20044;-60
2022/01/20 06:23:41;;;;;;;0.00;0.00;;;5.20;88.10;;;;;;4152541;28;20141;-60
2022/01/20 06:26:05;;;;;;;0.00;0.00;;;5.20;87.50;;;;;;4177615;28;20049;-62
2022/01/20 06:28:29;;;;;;;0.00;0.00;;;5.20;87.80;;;;;;4164419;28;20042;-60
2022/01/20 06:30:52;;;;;;;0.00;0.00;;;5.10;87.90;;;;;;4163692;28;20542;-60
2022/01/20 06:33:15;;;;;;;0.00;0.00;;;5.10;88.00;;;;;;4164631;28;20087;-61
2022/01/20 06:35:47;;;;;;;0.00;0.00;;;5.10;88.00;;;;;;4178446;28;20079;-60
2022/01/20 06:38:15;;;;;;;0.00;0.00;;;5.00;88.10;;;;;;4177990;28;20107;-60
2022/01/20 06:40:38;;;;;;;0.00;0.00;;;5.10;87.90;;;;;;4164336;28;20048;-61
2022/01/20 06:43:00;;;;;;;0.00;0.00;;;5.10;87.90;;;;;;4178228;28;20094;-60
2022/01/20 06:45:23;;;;;;;0.00;0.00;;;5.20;87.80;;;;;;4192347;28;20040;-61
2022/01/20 06:47:54;;;;;;;0.00;0.00;;;5.20;87.40;;;;;;4178454;28;20075;-61
2022/01/20 06:50:16;;;;;;;0.00;0.00;;;5.20;87.50;;;;;;4163959;28;20056;-61
2022/01/20 06:52:43;;;;;;;0.00;0.00;;;5.20;87.30;;;;;;4164600;28;20041;-61
2022/01/20 06:55:10;;;;;;;0.00;0.00;;;5.30;87.00;;;;;;4150566;28;20056;-60
2022/01/20 06:57:33;;;;;;;0.00;0.00;;;5.30;86.90;;;;;;4164172;28;20115;-61
2022/01/20 06:59:57;;;;;;;0.00;0.00;;;5.30;86.80;;;;;;4177971;28;20505;-60
2022/01/20 07:02:19;;;;;;;0.00;0.00;;;5.30;86.70;;;;;;4163568;28;20467;-61
2022/01/20 07:04:46;;;;;;;0.00;0.00;;;5.30;86.20;;;;;;4178333;28;20049;-60
2022/01/20 07:07:12;;;;;;;0.00;0.00;;;5.30;86.60;;;;;;4164373;28;20417;-61
2022/01/20 07:09:38;;;;;;;0.00;0.00;;;5.30;86.50;;;;;;4177996;28;20049;-61
2022/01/20 07:12:13;;;;;;;0.00;0.00;;;5.40;86.40;;;;;;4177445;28;20049;-61
2022/01/20 07:14:35;;;;;;;0.00;0.00;;;5.40;86.00;;;;;;4163498;28;20079;-63
2022/01/20 07:16:59;;;;;;;0.00;0.00;;;5.40;86.40;;;;;;4164355;28;20751;-60
2022/01/20 07:19:22;;;;;;;0.00;0.00;;;5.30;86.40;;;;;;4167243;28;20049;-59
2022/01/20 07:21:46;;;;;;;0.00;0.00;;;5.20;86.80;;;;;;4178114;28;20055;-60
2022/01/20 07:24:11;;;;;;;0.00;0.00;;;5.20;87.20;;;;;;4151120;28;20437;-60
2022/01/20 07:26:33;;;;;;;0.00;0.00;;;5.30;87.00;;;;;;4164276;28;20045;-60
2022/01/20 07:29:15;;;;;;;0.00;0.00;;;5.30;86.60;;;;;;4164768;28;20092;-61
2022/01/20 07:31:38;;;;;;;0.00;0.00;;;5.50;86.40;;;;;;4164226;28;20045;-61
2022/01/20 07:34:04;;;;;;;0.00;0.00;;;5.50;86.10;;;;;;4150718;28;20066;-61
2022/01/20 07:36:27;;;;;;;0.00;0.00;;;5.50;86.40;;;;;;4164154;28;20041;-61
2022/01/20 07:38:50;;;;;;;0.00;0.00;;;5.60;86.20;;;;;;4150830;28;20507;-60
2022/01/20 07:41:15;;;;;;;0.00;0.00;;;5.60;85.90;;;;;;4164347;28;20087;-61
2022/01/20 07:43:40;;;;;;;0.00;0.00;;;5.60;86.10;;;;;;4164582;28;20055;-60
2022/01/20 07:46:34;;;;;;;0.00;0.00;;;5.60;85.80;;;;;;4140905;28;20041;-60
2022/01/20 07:48:58;;;;;;;0.00;0.00;;;5.30;87.00;;;;;;4164195;28;20100;-60
2022/01/20 07:51:27;;;;;;;0.00;0.00;;;5.30;88.10;;;;;;4150297;28;20046;-60
2022/01/20 07:53:49;;;;;;;0.00;0.00;;;5.30;88.60;;;;;;4178401;28;20135;-60
2022/01/20 07:56:14;;;;;;;0.00;0.00;;;5.40;88.70;;;;;;4163931;28;20119;-60
2022/01/20 07:58:37;;;;;;;0.00;0.00;;;5.30;89.30;;;;;;4164355;28;20041;-60
2022/01/20 08:01:01;;;;;;;0.00;0.00;;;5.40;89.60;;;;;;4177655;28;20078;-60
2022/01/20 08:03:28;;;;;;;0.00;0.00;;;5.30;89.90;;;;;;4150304;28;20050;-60
2022/01/20 08:05:59;;;;;;;0.00;0.00;;;5.10;90.30;;;;;;4178035;28;20047;-60
2022/01/20 08:08:27;;;;;;;0.00;0.00;;;5.20;90.30;;;;;;4149786;28;20064;-60
2022/01/20 08:11:25;;;;;;;0.00;0.00;;;5.20;90.40;;;;;;4149075;28;20070;-60
2022/01/20 08:13:57;;;;;;;0.00;0.00;;;5.30;90.30;;;;;;4149545;28;20054;-62
2022/01/20 08:16:19;;;;;;;0.00;0.00;;;5.10;90.40;;;;;;4134706;28;20049;-60
2022/01/20 08:18:42;;;;;;;0.00;0.00;;;5.10;90.50;;;;;;4163637;28;20041;-59
2022/01/20 08:21:04;;;;;;;0.00;0.00;;;5.00;90.70;;;;;;4149989;28;20042;-60
2022/01/20 08:23:26;;;;;;;0.00;0.00;;;5.00;90.80;;;;;;4164049;28;20084;-60
2022/01/20 08:25:49;;;;;;;0.00;0.00;;;5.00;90.80;;;;;;4163895;28;20079;-60
2022/01/20 08:28:12;;;;;;;0.00;0.00;;;5.20;90.70;;;;;;4147347;28;20092;-60
2022/01/20 08:30:36;;;;;;;0.00;0.00;;;5.30;90.60;;;;;;4149112;28;20049;-60
2022/01/20 08:33:00;;;;;;;0.00;0.00;;;5.40;90.40;;;;;;4163492;28;20046;-60
2022/01/20 08:35:40;;;;;;;0.00;0.00;;;5.50;90.20;;;;;;4150097;28;20068;-60
2022/01/20 08:38:07;;;;;;;0.00;0.00;;;5.60;90.00;;;;;;4149941;28;20048;-60
2022/01/20 08:40:29;;;;;;;0.00;0.00;;;5.60;89.80;;;;;;4149440;28;20077;-60
2022/01/20 08:42:56;;;;;;;0.00;0.00;;;5.70;89.40;;;;;;4163494;28;20586;-60
2022/01/20 08:45:21;;;;;;;0.00;0.00;;;5.70;88.50;;;;;;4149828;28;20045;-61
2022/01/20 08:47:44;;;;;;;0.00;0.00;;;5.70;88.60;;;;;;4149825;28;20133;-61
2022/01/20 08:50:10;;;;;;;0.00;0.00;;;5.80;88.40;;;;;;4149546;28;20054;-60
2022/01/20 08:52:38;;;;;;;0.00;0.00;;;5.80;87.70;;;;;;4149332;28;20462;-60
2022/01/20 08:55:01;;;;;;;0.00;0.00;;;5.70;87.80;;;;;;4149291;28;20077;-59
2022/01/20 08:57:38;;;;;;;0.00;0.00;;;5.70;87.50;;;;;;4149388;28;20489;-61
2022/01/20 09:00:01;;;;;;;0.00;0.00;;;5.70;87.60;;;;;;4149614;28;20137;-60
2022/01/20 09:02:25;;;;;;;0.00;0.00;;;5.70;87.50;;;;;;4160342;28;20494;-61
2022/01/20 09:04:47;;;;;;;0.00;0.00;;;5.70;87.60;;;;;;4153558;28;20526;-60
2022/01/20 09:07:29;;;;;;;0.00;0.00;;;5.50;86.50;;;;;;4146561;28;20128;-61
2022/01/20 09:09:53;;;;;;;0.00;0.00;;;5.60;86.50;;;;;;4146517;28;20692;-60
2022/01/20 09:15:47;;;;;;;0.00;0.00;;;5.50;86.30;;;;;;4133016;28;20054;-61
2022/01/20 09:18:03;;;;;;;0.00;0.00;;;5.60;86.50;;;;;;4132969;28;20042;-62
2022/01/20 09:20:26;;;;;;;0.00;0.00;;;5.60;85.90;;;;;;4160677;28;20153;-62
2022/01/20 09:22:50;;;;;;;0.00;0.00;;;5.60;85.80;;;;;;4160014;28;20049;-60
2022/01/20 09:25:14;;;;;;;0.00;0.00;;;5.60;85.50;;;;;;4146693;28;20046;-62
2022/01/20 09:27:39;;;;;;;0.00;0.00;;;5.60;85.80;;;;;;4155957;28;20057;-60
2022/01/20 09:30:04;;;;;;;0.00;0.00;;;5.70;85.70;;;;;;4161288;28;20050;-62
2022/01/20 09:32:29;;;;;;;0.00;0.00;;;5.70;85.90;;;;;;4159263;28;20567;-60
2022/01/20 09:34:51;;;;;;;0.00;0.00;;;5.70;85.70;;;;;;4143074;28;20046;-60
2022/01/20 09:37:14;;;;;;;0.00;0.00;;;5.60;86.20;;;;;;4156936;28;20049;-60
2022/01/20 09:39:41;;;;;;;0.00;0.00;;;5.70;86.20;;;;;;4192870;28;20146;-60
2022/01/20 09:42:14;;;;;;;0.00;0.00;;;5.80;86.00;;;;;;4178126;28;20084;-60
2022/01/20 09:44:46;;;;;;;0.00;0.00;;;5.80;85.40;;;;;;4165196;28;20049;-60
2022/01/20 09:47:12;;;;;;;0.00;0.00;;;5.90;86.00;;;;;;4192853;28;20119;-60
2022/01/20 09:49:58;;;;;;;0.00;0.00;;;5.90;85.10;;;;;;4182049;28;20055;-61
2022/01/20 09:52:34;;;;;;;0.00;0.00;;;5.80;84.90;;;;;;4164440;28;20606;-65
2022/01/20 09:55:18;;;;;;;0.00;0.00;;;5.90;84.00;;;;;;4177900;28;20045;-62
2022/01/20 09:57:41;;;;;;;0.00;0.00;;;6.00;84.00;;;;;;4192844;28;20052;-61
2022/01/20 10:00:09;;;;;;;0.00;0.00;;;5.90;83.80;;;;;;4164852;28;20422;-62
2022/01/20 10:02:36;;;;;;;0.00;0.00;;;5.90;83.90;;;;;;4178346;28;20158;-60
2022/01/20 10:04:58;;;;;;;0.00;0.00;;;5.90;83.70;;;;;;4176129;28;20124;-60
2022/01/20 10:07:34;;;;;;;0.00;0.00;;;5.90;83.40;;;;;;4148601;28;20119;-62
2022/01/20 10:10:02;;;;;;;0.00;0.00;;;6.00;83.20;;;;;;4152678;28;20133;-62
2022/01/20 10:12:51;;;;;;;0.00;0.00;;;5.90;83.00;;;;;;4189539;28;20040;-59
2022/01/20 10:16:19;;;;;;;0.00;0.00;;;5.80;83.40;;;;;;4195214;28;20055;-60
2022/01/20 10:18:50;;;;;;;0.00;0.00;;;5.80;83.30;;;;;;4178283;28;20041;-63
2022/01/20 10:21:15;;;;;;;0.00;0.00;;;5.70;83.50;;;;;;4164247;28;20049;-61
2022/01/20 10:23:48;;;;;;;0.00;0.00;;;5.80;83.50;;;;;;4164669;28;20041;-60
2022/01/20 10:26:51;;;;;;;0.00;0.00;;;5.70;83.60;;;;;;4163234;28;20167;-63
2022/01/20 10:29:15;;;;;;;0.00;0.00;;;5.70;83.50;;;;;;4149796;28;20049;-62
2022/01/20 10:31:57;;;;;;;0.00;0.00;;;5.70;83.50;;;;;;4172854;28;20053;-62
2022/01/20 10:34:37;;;;;;;0.00;0.00;;;5.70;83.70;;;;;;4161417;28;20064;-61
2022/01/20 10:37:24;;;;;;;0.00;0.00;;;5.70;83.90;;;;;;4159417;28;20042;-60
2022/01/20 10:40:09;;;;;;;0.00;0.00;;;5.80;83.80;;;;;;4159208;28;20128;-60
2022/01/20 10:42:43;;;;;;;0.00;0.00;;;5.80;83.70;;;;;;4158063;28;20049;-63
2022/01/20 10:45:08;;;;;;;0.00;0.00;;;5.80;84.00;;;;;;4145469;28;20466;-61
2022/01/20 10:47:36;;;;;;;0.00;0.00;;;5.80;84.10;;;;;;4145616;28;20049;-61
2022/01/20 10:50:10;;;;;;;0.00;0.00;;;5.70;84.20;;;;;;4131864;28;20054;-59
2022/01/20 10:52:38;;;;;;;0.00;0.00;;;5.70;84.20;;;;;;4157820;28;20065;-60
2022/01/20 10:55:01;;;;;;;0.00;0.00;;;5.70;84.30;;;;;;4132095;28;20045;-61
2022/01/20 10:57:37;;;;;;;0.00;0.00;;;5.60;84.50;;;;;;4145380;28;20046;-61
2022/01/20 11:00:09;;;;;;;0.00;0.00;;;5.60;85.80;;;;;;4145296;28;20053;-58
2022/01/20 11:02:39;;;;;;;0.00;0.00;;;5.50;85.90;;;;;;4160422;28;20041;-60
2022/01/20 11:05:03;;;;;;;0.00;0.00;;;5.50;85.80;;;;;;4158293;28;20088;-61
2022/01/20 11:07:30;;;;;;;0.00;0.00;;;5.60;85.90;;;;;;4164400;28;20049;-60
2022/01/20 11:09:59;;;;;;;0.00;0.00;;;5.60;85.30;;;;;;4177890;28;20083;-61
2022/01/20 11:12:41;;;;;;;0.00;0.00;;;5.70;85.60;;;;;;4161073;28;20065;-61
2022/01/20 11:15:20;;;;;;;0.00;0.00;;;5.50;85.60;;;;;;4170650;28;20094;-60
2022/01/20 11:17:52;;;;;;;0.00;0.00;;;5.50;85.90;;;;;;4164196;28;20558;-58
2022/01/20 11:20:26;;;;;;;0.00;0.00;;;5.60;86.10;;;;;;4161756;28;20045;-59
2022/01/20 11:23:01;;;;;;;0.00;0.00;;;5.70;85.50;;;;;;4177815;28;20321;-60
2022/01/20 11:25:29;;;;;;;0.00;0.00;;;5.60;85.60;;;;;;4177854;28;20084;-60
2022/01/20 11:28:12;;;;;;;0.00;0.00;;;5.60;85.90;;;;;;4164142;28;20053;-59
2022/01/20 11:31:06;;;;;;;0.00;0.00;;;5.70;85.90;;;;;;4177295;28;20040;-62
2022/01/20 11:33:49;;;;;;;0.00;0.00;;;5.60;85.90;;;;;;4177129;28;20049;-59
2022/01/20 11:36:22;;;;;;;0.00;0.00;;;5.60;85.90;;;;;;4190228;28;20075;-64
2022/01/20 11:39:05;;;;;;;0.00;0.00;;;5.70;86.00;;;;;;4162564;28;20041;-60
2022/01/20 11:41:36;;;;;;;0.00;0.00;;;5.60;86.00;;;;;;4190229;28;20052;-62
2022/01/20 11:44:08;;;;;;;0.00;0.00;;;5.70;85.90;;;;;;4191696;28;20044;-61
2022/01/20 11:46:38;;;;;;;0.00;0.00;;;5.70;85.90;;;;;;4177720;28;22947;-61
2022/01/20 11:49:09;;;;;;;0.00;0.00;;;5.70;85.90;;;;;;4191872;28;20052;-62
2022/01/20 11:51:54;;;;;;;0.00;0.00;;;5.70;85.90;;;;;;4177831;28;20409;-59
2022/01/20 11:54:39;;;;;;;0.00;0.00;;;5.70;85.60;;;;;;4191396;28;20463;-60
2022/01/20 11:57:13;;;;;;;0.00;0.00;;;5.70;85.70;;;;;;4191827;28;20079;-62
2022/01/20 11:59:42;;;;;;;0.00;0.00;;;5.60;85.90;;;;;;4157399;28;20073;-60
2022/01/20 12:02:05;;;;;;;0.00;0.00;;;5.70;85.70;;;;;;4159937;28;20136;-61
2022/01/20 12:04:41;;;;;;;0.00;0.00;;;5.70;85.60;;;;;;4133592;28;20049;-60
2022/01/20 12:07:22;;;;;;;0.00;0.00;;;5.80;85.30;;;;;;4163298;28;20136;-61
2022/01/20 12:09:44;;;;;;;0.00;0.00;;;5.80;85.60;;;;;;4152034;28;20077;-61
2022/01/20 12:12:26;;;;;;;0.00;0.00;;;5.80;86.50;;;;;;4163462;28;20073;-62
2022/01/20 12:14:49;;;;;;;0.00;0.00;;;5.90;85.60;;;;;;4158638;28;20482;-62
2022/01/20 12:17:16;;;;;;;0.00;0.00;;;5.90;85.40;;;;;;4147765;28;20054;-61
2022/01/20 12:19:39;;;;;;;0.00;0.00;;;5.90;85.50;;;;;;4147672;28;20077;-62
2022/01/20 12:22:05;;;;;;;0.00;0.00;;;6.00;85.30;;;;;;4147300;28;20502;-62
2022/01/20 12:24:28;;;;;;;0.00;0.00;;;6.00;85.30;;;;;;4133423;28;20054;-62
2022/01/20 12:26:51;;;;;;;0.00;0.00;;;6.00;85.30;;;;;;4147478;28;20057;-61
2022/01/20 12:29:14;;;;;;;0.00;0.00;;;6.10;85.40;;;;;;4147487;28;20407;-61
2022/01/20 12:31:47;;;;;;;0.00;0.00;;;6.20;85.20;;;;;;4147026;28;20053;-61
2022/01/20 12:34:13;;;;;;;0.00;0.00;;;6.30;85.00;;;;;;4147032;28;20148;-61
2022/01/20 12:36:39;;;;;;;0.00;0.00;;;6.30;85.00;;;;;;4150340;28;20038;-61
2022/01/20 12:39:01;;;;;;;0.00;0.00;;;6.40;84.90;;;;;;4164125;28;20104;-62
2022/01/20 12:41:24;;;;;;;0.00;0.00;;;6.30;84.60;;;;;;4181378;28;20433;-61
2022/01/20 12:43:59;;;;;;;0.00;0.00;;;6.20;84.50;;;;;;4191258;28;20080;-61
2022/01/20 12:46:30;;;;;;;0.00;0.00;;;6.30;84.60;;;;;;4164394;28;20061;-62
2022/01/20 12:48:58;;;;;;;0.00;0.00;;;6.30;84.70;;;;;;4177604;28;20577;-62
2022/01/20 12:51:30;;;;;;;0.00;0.00;;;6.30;84.50;;;;;;4163244;28;20414;-62
2022/01/20 12:53:57;;;;;;;0.00;0.00;;;6.30;84.30;;;;;;4177103;28;20049;-61
2022/01/20 12:56:30;;;;;;;0.00;0.00;;;6.30;84.40;;;;;;4159539;28;20045;-63
2022/01/20 12:58:53;;;;;;;0.00;0.00;;;6.30;84.40;;;;;;4160876;28;20105;-61
2022/01/20 13:01:15;;;;;;;0.00;0.00;;;6.40;84.30;;;;;;4176799;28;20051;-62
2022/01/20 13:03:40;;;;;;;0.00;0.00;;;6.40;83.80;;;;;;4175103;28;20135;-61
2022/01/20 13:06:04;;;;;;;0.00;0.00;;;6.40;84.00;;;;;;4166012;28;20063;-61
2022/01/20 13:08:32;;;;;;;0.00;0.00;;;6.50;83.90;;;;;;4179397;28;20057;-61
2022/01/20 13:11:11;;;;;;;0.00;0.00;;;6.50;83.70;;;;;;4179473;28;20064;-62
2022/01/20 13:13:34;;;;;;;0.00;0.00;;;6.50;83.60;;;;;;4179702;28;20418;-61
2022/01/20 13:15:56;;;;;;;0.00;0.00;;;6.40;83.80;;;;;;4162271;28;20551;-59
2022/01/20 13:18:18;;;;;;;0.00;0.00;;;6.40;83.90;;;;;;4162615;28;20053;-60
2022/01/20 13:20:52;;;;;;;0.00;0.00;;;6.20;84.30;;;;;;4135839;28;20051;-61
2022/01/20 13:25:43;;;;;;;0.00;0.00;;;6.30;84.50;;;;;;4162753;28;20063;-61
2022/01/20 13:28:10;;;;;;;0.00;0.00;;;6.30;84.30;;;;;;4162918;28;20041;-61
2022/01/20 13:30:39;;;;;;;0.00;0.00;;;6.40;84.30;;;;;;4162474;28;20072;-62
2022/01/20 13:33:05;;;;;;;0.00;0.00;;;6.40;84.30;;;;;;4162683;28;20056;-60
2022/01/20 13:35:38;;;;;;;0.00;0.00;;;6.40;84.20;;;;;;4176786;28;20410;-59
2022/01/20 13:38:04;;;;;;;0.00;0.00;;;6.40;84.30;;;;;;4149127;28;20049;-60
2022/01/20 13:40:26;;;;;;;0.00;0.00;;;6.50;84.20;;;;;;4176208;28;20084;-59
2022/01/20 13:45:40;;;;;;;0.00;0.00;;;6.40;84.40;;;;;;4161689;28;20112;-59
2022/01/20 13:48:02;;;;;;;0.00;0.00;;;6.40;84.50;;;;;;4162435;28;20308;-60
2022/01/20 13:50:28;;;;;;;0.00;0.00;;;6.20;84.80;;;;;;4148501;28;20052;-59
2022/01/20 13:52:51;;;;;;;0.00;0.00;;;6.30;85.00;;;;;;4161092;28;20607;-59
2022/01/20 13:55:44;;;;;;;0.00;0.00;;;6.40;85.00;;;;;;4161869;28;20072;-60
2022/01/20 13:58:07;;;;;;;0.00;0.00;;;6.40;84.80;;;;;;4131203;28;20050;-59
2022/01/20 14:00:32;;;;;;;0.00;0.00;;;6.50;84.90;;;;;;4130838;28;20046;-60
2022/01/20 14:02:55;;;;;;;0.00;0.00;;;6.60;84.80;;;;;;4146270;28;20052;-61
2022/01/20 14:05:19;;;;;;;0.00;0.00;;;6.60;84.60;;;;;;4128785;28;20047;-62
2022/01/20 14:07:42;;;;;;;0.00;0.00;;;6.60;84.40;;;;;;4128590;28;20042;-60
2022/01/20 14:10:05;;;;;;;0.00;0.00;;;6.60;84.60;;;;;;4134833;28;20133;-61
2022/01/20 14:12:28;;;;;;;0.00;0.00;;;6.60;84.50;;;;;;4143233;28;20049;-61